createdAt,value
2023-01-10T00:01:55.325Z,56.20
2023-01-10T00:04:21.810Z,58.10
2023-01-10T00:06:48.398Z,61.50
2023-01-10T00:09:14.944Z,58.90
2023-01-10T00:11:41.486Z,61.90
2023-01-10T00:14:08.121Z,57.10
2023-01-10T00:16:34.965Z,71.90
2023-01-10T00:19:01.514Z,87.80
2023-01-10T00:21:28.045Z,82.60
2023-01-10T00:23:54.443Z,78.30
2023-01-10T00:26:20.924Z,76.10
2023-01-10T00:28:47.361Z,73.60
2023-01-10T00:31:13.979Z,78.20
2023-01-10T00:33:40.544Z,74.20
2023-01-10T00:36:08.127Z,76.20
2023-01-10T00:38:35.978Z,74.10
2023-01-10T00:41:03.543Z,74.00
2023-01-10T00:43:30.086Z,81.90
2023-01-10T00:45:57.910Z,77.20
2023-01-10T00:48:24.905Z,75.90
2023-01-10T00:50:51.647Z,73.90
2023-01-10T00:53:18.192Z,76.30
2023-01-10T00:55:45.095Z,64.50
2023-01-10T00:58:13.948Z,65.50
2023-01-10T01:00:41.708Z,62.90
2023-01-10T01:03:08.640Z,63.60
2023-01-10T01:05:41.016Z,67.10
2023-01-10T01:08:07.534Z,69.10
2023-01-10T01:10:34.121Z,72.20
2023-01-10T01:13:16.632Z,75.30
2023-01-10T01:15:43.198Z,75.20
2023-01-10T01:18:12.778Z,71.20
2023-01-10T01:20:41.084Z,70.60
2023-01-10T01:23:08.018Z,72.30
2023-01-10T01:25:34.971Z,72.30
2023-01-10T01:28:01.370Z,72.60
2023-01-10T01:30:27.949Z,67.40
2023-01-10T01:32:54.382Z,70.30
2023-01-10T01:35:21.846Z,65.70
2023-01-10T01:37:48.305Z,54.00
2023-01-10T01:40:19.436Z,52.70
2023-01-10T01:42:47.397Z,53.50
2023-01-10T01:45:13.851Z,52.80
2023-01-10T01:48:07.430Z,50.90
2023-01-10T01:50:48.681Z,48.80
2023-01-10T01:53:22.775Z,48.00
2023-01-10T01:55:52.405Z,45.90
2023-01-10T01:58:24.906Z,45.50
2023-01-10T02:00:51.443Z,41.10
2023-01-10T02:03:18.602Z,39.50
2023-01-10T02:05:45.674Z,41.20
2023-01-10T02:08:13.915Z,40.30
2023-01-10T02:11:05.084Z,34.80
2023-01-10T02:13:33.644Z,32.70
2023-01-10T02:16:01.519Z,29.00
2023-01-10T02:18:28.107Z,29.70
2023-01-10T02:21:06.909Z,29.00
2023-01-10T02:23:36.564Z,32.40
2023-01-10T02:26:18.314Z,32.70
2023-01-10T02:28:58.888Z,33.10
2023-01-10T02:31:57.890Z,34.00
2023-01-10T02:34:35.302Z,32.80
2023-01-10T02:37:27.830Z,32.30
2023-01-10T02:40:13.729Z,32.00
2023-01-10T02:42:50.200Z,28.80
2023-01-10T02:45:46.133Z,29.50
2023-01-10T02:48:12.673Z,26.30
2023-01-10T02:50:41.980Z,21.50
2023-01-10T02:53:37.307Z,22.20
2023-01-10T02:56:19.956Z,19.90
2023-01-10T02:58:54.138Z,17.40
2023-01-10T03:01:37.428Z,17.50
2023-01-10T03:04:22.041Z,18.10
2023-01-10T03:07:11.749Z,19.20
2023-01-10T03:10:03.421Z,15.90
2023-01-10T03:15:09.583Z,16.60
2023-01-10T03:17:37.966Z,16.70
2023-01-10T03:20:06.969Z,16.70
2023-01-10T03:22:38.168Z,16.20
2023-01-10T03:25:08.953Z,16.60
2023-01-10T03:28:16.236Z,16.00
2023-01-10T03:30:52.468Z,15.40
2023-01-10T03:33:24.588Z,15.00
2023-01-10T03:36:18.022Z,16.20
2023-01-10T03:39:19.281Z,15.20
2023-01-10T03:42:02.743Z,14.90
2023-01-10T03:44:34.989Z,13.90
2023-01-10T03:47:16.973Z,13.30
2023-01-10T03:49:46.538Z,13.30
2023-01-10T03:52:16.152Z,13.80
2023-01-10T03:54:44.852Z,15.60
2023-01-10T03:57:23.270Z,15.30
2023-01-10T03:59:56.114Z,15.90
2023-01-10T04:02:22.644Z,19.50
2023-01-10T04:04:49.209Z,19.90
2023-01-10T04:07:15.590Z,20.90
2023-01-10T04:09:42.055Z,21.60
2023-01-10T04:12:08.700Z,19.90
2023-01-10T04:14:35.142Z,18.60
2023-01-10T04:17:01.776Z,20.90
2023-01-10T04:19:28.354Z,19.80
2023-01-10T04:21:54.776Z,19.20
2023-01-10T04:24:21.512Z,18.00
2023-01-10T04:26:48.456Z,16.90
2023-01-10T04:29:14.996Z,16.50
2023-01-10T04:31:41.504Z,15.60
2023-01-10T04:34:09.406Z,14.40
2023-01-10T04:36:36.221Z,12.20
2023-01-10T04:39:04.032Z,13.30
2023-01-10T04:41:30.678Z,15.10
2023-01-10T04:43:57.163Z,16.70
2023-01-10T04:46:23.760Z,11.50
2023-01-10T04:48:50.502Z,13.50
2023-01-10T04:51:17.159Z,13.10
2023-01-10T04:53:43.563Z,13.50
2023-01-10T04:56:17.018Z,14.40
2023-01-10T04:58:43.482Z,14.10
2023-01-10T05:01:23.324Z,14.30
2023-01-10T05:03:51.434Z,14.20
2023-01-10T05:06:19.095Z,11.90
2023-01-10T05:08:46.401Z,11.20
2023-01-10T05:11:13.718Z,13.30
2023-01-10T05:13:40.526Z,14.50
2023-01-10T05:16:07.827Z,13.10
2023-01-10T05:18:34.691Z,11.60
2023-01-10T05:21:06.382Z,11.70
2023-01-10T05:23:33.517Z,11.00
2023-01-10T05:26:14.974Z,10.80
2023-01-10T05:28:42.078Z,11.00
2023-01-10T05:31:11.381Z,9.80
2023-01-10T05:33:38.511Z,10.50
2023-01-10T05:36:06.826Z,9.40
2023-01-10T05:38:33.830Z,8.00
2023-01-10T05:41:00.904Z,8.80
2023-01-10T05:43:28.580Z,8.70
2023-01-10T05:45:55.196Z,8.40
2023-01-10T05:48:21.959Z,8.50
2023-01-10T05:50:50.410Z,8.70
2023-01-10T05:53:17.882Z,7.90
2023-01-10T05:55:45.165Z,8.20
2023-01-10T05:58:11.728Z,8.00
2023-01-10T06:00:38.392Z,7.80
2023-01-10T06:03:04.877Z,6.80
2023-01-10T06:05:31.402Z,6.60
2023-01-10T06:07:57.942Z,7.20
2023-01-10T06:10:26.308Z,6.30
2023-01-10T06:12:53.583Z,7.00
2023-01-10T06:15:20.013Z,6.30
2023-01-10T06:17:46.573Z,6.70
2023-01-10T06:20:13.823Z,6.40
2023-01-10T06:22:43.749Z,7.00
2023-01-10T06:25:11.997Z,5.70
2023-01-10T06:27:41.323Z,5.70
2023-01-10T06:30:09.684Z,6.90
2023-01-10T06:32:36.869Z,8.40
2023-01-10T06:35:04.782Z,7.90
2023-01-10T06:37:32.102Z,7.90
2023-01-10T06:39:58.567Z,8.10
2023-01-10T06:42:25.389Z,8.50
2023-01-10T06:44:51.802Z,6.60
2023-01-10T06:47:18.426Z,16.20
2023-01-10T06:49:44.888Z,7.60
2023-01-10T06:52:11.426Z,9.10
2023-01-10T06:54:38.083Z,6.80
2023-01-10T06:57:04.701Z,6.00
2023-01-10T06:59:31.130Z,10.40
2023-01-10T07:01:57.656Z,6.70
2023-01-10T07:04:24.433Z,6.60
2023-01-10T07:06:50.981Z,7.40
2023-01-10T07:09:17.509Z,8.90
2023-01-10T07:11:44.476Z,9.90
2023-01-10T07:14:10.901Z,8.60
2023-01-10T07:16:37.402Z,10.20
2023-01-10T07:19:03.991Z,10.50
2023-01-10T07:21:30.531Z,10.00
2023-01-10T07:23:57.172Z,9.70
2023-01-10T07:26:23.923Z,10.00
2023-01-10T07:28:51.280Z,9.50
2023-01-10T07:31:21.635Z,9.00
2023-01-10T07:33:48.143Z,9.90
2023-01-10T07:36:14.666Z,8.30
2023-01-10T07:38:41.225Z,8.80
2023-01-10T07:41:07.880Z,8.80
2023-01-10T07:43:35.113Z,8.90
2023-01-10T07:46:03.619Z,8.50
2023-01-10T07:48:31.011Z,7.80
2023-01-10T07:50:59.539Z,8.10
2023-01-10T07:53:28.048Z,8.50
2023-01-10T07:55:58.605Z,8.20
2023-01-10T07:58:25.114Z,6.40
2023-01-10T08:00:51.696Z,7.30
2023-01-10T08:03:18.675Z,5.00
2023-01-10T08:05:45.351Z,5.20
2023-01-10T08:08:13.023Z,5.30
2023-01-10T08:10:39.968Z,4.80
2023-01-10T08:13:17.824Z,4.50
2023-01-10T08:15:46.574Z,4.90
2023-01-10T08:18:13.065Z,4.30
2023-01-10T08:20:40.591Z,4.50
2023-01-10T08:23:07.095Z,4.40
2023-01-10T08:25:33.543Z,3.90
2023-01-10T08:28:00.035Z,4.30
2023-01-10T08:30:26.522Z,3.50
2023-01-10T08:32:53.110Z,3.60
2023-01-10T08:35:19.508Z,4.10
2023-01-10T08:37:46.133Z,4.00
2023-01-10T08:40:12.904Z,4.10
2023-01-10T08:42:39.297Z,3.80
2023-01-10T08:45:06.388Z,4.60
2023-01-10T08:47:35.666Z,5.30
2023-01-10T08:50:02.309Z,4.20
2023-01-10T08:52:28.972Z,6.20
2023-01-10T08:54:55.510Z,3.40
2023-01-10T08:57:22.020Z,3.50
2023-01-10T08:59:48.593Z,4.00
2023-01-10T09:02:15.152Z,3.00
2023-01-10T09:04:41.742Z,4.00
2023-01-10T09:07:08.279Z,4.20
2023-01-10T09:09:36.353Z,4.50
2023-01-10T09:12:02.993Z,3.30
2023-01-10T09:14:29.440Z,5.20
2023-01-10T09:16:55.976Z,5.40
2023-01-10T09:19:22.421Z,5.80
2023-01-10T09:21:48.940Z,7.30
2023-01-10T09:24:15.488Z,7.50
2023-01-10T09:26:42.133Z,4.40
2023-01-10T09:29:08.821Z,5.50
2023-01-10T09:31:35.394Z,3.60
2023-01-10T09:34:01.884Z,2.70
2023-01-10T09:36:28.343Z,2.60
2023-01-10T09:39:39.169Z,2.30
2023-01-10T09:42:50.259Z,2.10
2023-01-10T09:45:21.808Z,2.30
2023-01-10T09:50:31.268Z,2.80
2023-01-10T09:53:03.802Z,2.30
2023-01-10T09:55:34.188Z,2.60
2023-01-10T09:58:07.123Z,2.60
2023-01-10T10:01:06.241Z,2.40
2023-01-10T10:03:41.046Z,3.30
2023-01-10T10:06:12.700Z,8.20
2023-01-10T10:08:45.156Z,6.30
2023-01-10T10:11:30.328Z,3.40
2023-01-10T10:14:15.185Z,3.40
2023-01-10T10:17:06.427Z,3.50
2023-01-10T10:19:59.294Z,4.20
2023-01-10T10:22:55.010Z,4.10
2023-01-10T10:25:53.265Z,3.60
2023-01-10T10:28:22.393Z,3.60
2023-01-10T10:31:06.954Z,7.90
2023-01-10T10:33:58.587Z,7.60
2023-01-10T10:36:31.428Z,4.10
2023-01-10T10:39:01.410Z,9.90
2023-01-10T10:41:42.471Z,2.90
2023-01-10T10:44:33.733Z,3.40
2023-01-10T10:47:01.379Z,7.60
2023-01-10T10:49:52.999Z,13.30
2023-01-10T10:52:26.438Z,13.90
2023-01-10T10:54:54.719Z,9.20
2023-01-10T10:57:28.279Z,5.00
2023-01-10T10:59:56.564Z,5.60
2023-01-10T11:02:31.296Z,4.00
2023-01-10T11:05:02.918Z,6.40
2023-01-10T11:07:35.635Z,4.60
2023-01-10T11:10:14.018Z,4.50
2023-01-10T11:12:45.024Z,5.70
2023-01-10T11:15:11.600Z,7.10
2023-01-10T11:17:38.053Z,5.80
2023-01-10T11:20:16.523Z,15.40
2023-01-10T11:22:49.279Z,9.60
2023-01-10T11:25:18.036Z,11.10
2023-01-10T11:27:58.868Z,14.00
2023-01-10T11:30:29.229Z,13.00
2023-01-10T11:32:57.324Z,7.50
2023-01-10T11:35:30.734Z,6.40
2023-01-10T11:38:05.064Z,6.40
2023-01-10T11:40:34.168Z,10.60
2023-01-10T11:43:20.890Z,8.30
2023-01-10T11:45:54.878Z,13.70
2023-01-10T11:48:47.936Z,9.70
2023-01-10T11:51:19.937Z,10.80
2023-01-10T11:53:47.071Z,14.70
2023-01-10T11:56:24.525Z,12.60
2023-01-10T11:58:51.666Z,15.50
2023-01-10T12:01:39.929Z,20.70
2023-01-10T12:04:06.637Z,14.80
2023-01-10T12:06:34.209Z,15.50
2023-01-10T12:09:00.730Z,14.10
2023-01-10T12:11:30.849Z,10.20
2023-01-10T12:13:59.737Z,9.50
2023-01-10T12:16:29.301Z,8.90
2023-01-10T12:18:59.107Z,8.40
2023-01-10T12:21:39.656Z,8.20
2023-01-10T12:24:27.274Z,6.90
2023-01-10T12:26:55.301Z,8.70
2023-01-10T12:29:30.822Z,11.70
2023-01-10T12:31:58.797Z,10.60
2023-01-10T12:34:41.413Z,8.50
2023-01-10T12:37:22.163Z,8.30
2023-01-10T12:40:02.214Z,5.50
2023-01-10T12:42:47.390Z,5.10
2023-01-10T12:45:23.815Z,6.10
2023-01-10T12:48:03.217Z,7.50
2023-01-10T12:50:41.411Z,9.80
2023-01-10T12:53:10.962Z,9.00
2023-01-10T12:55:46.004Z,6.50
2023-01-10T12:58:19.788Z,8.90
2023-01-10T13:00:51.582Z,12.00
2023-01-10T13:03:25.186Z,9.40
2023-01-10T13:05:51.710Z,12.30
2023-01-10T13:08:23.207Z,13.00
2023-01-10T13:13:30.180Z,8.40
2023-01-10T13:16:15.684Z,8.90
2023-01-10T13:19:10.913Z,9.20
2023-01-10T13:21:39.866Z,9.00
2023-01-10T13:24:15.362Z,9.10
2023-01-10T13:27:03.506Z,8.90
2023-01-10T13:29:38.200Z,10.50
2023-01-10T13:32:21.638Z,11.80
2023-01-10T13:34:48.356Z,10.70
2023-01-10T13:37:22.753Z,12.50
2023-01-10T13:39:58.160Z,12.60
2023-01-10T13:42:34.240Z,12.40
2023-01-10T13:45:00.764Z,12.60
2023-01-10T13:47:39.480Z,15.60
2023-01-10T13:50:24.129Z,12.80
2023-01-10T13:52:52.347Z,20.10
2023-01-10T13:55:33.778Z,13.70
2023-01-10T13:58:09.381Z,11.40
2023-01-10T14:00:35.912Z,13.30
2023-01-10T14:03:02.337Z,18.20
2023-01-10T14:05:28.809Z,14.50
2023-01-10T14:07:56.217Z,17.00
2023-01-10T14:10:26.220Z,14.80
2023-01-10T14:13:02.938Z,14.50
2023-01-10T14:15:39.212Z,17.10
2023-01-10T14:18:16.855Z,18.30
2023-01-10T14:20:44.445Z,14.60
2023-01-10T14:23:22.024Z,17.30
2023-01-10T14:25:57.119Z,14.00
2023-01-10T14:28:33.226Z,15.90
2023-01-10T14:31:25.504Z,14.50
2023-01-10T14:33:53.193Z,14.70
2023-01-10T14:36:31.395Z,16.60
2023-01-10T14:39:01.442Z,19.20
2023-01-10T14:41:38.601Z,14.20
2023-01-10T14:44:27.374Z,21.60
2023-01-10T14:46:56.639Z,17.70
2023-01-10T14:49:33.485Z,12.20
2023-01-10T14:52:18.636Z,17.50
2023-01-10T14:54:46.001Z,25.70
2023-01-10T14:57:21.523Z,28.30
2023-01-10T14:59:49.314Z,41.10
2023-01-10T15:02:18.334Z,45.90
2023-01-10T15:05:15.371Z,26.40
2023-01-10T15:07:41.908Z,33.20
2023-01-10T15:10:17.859Z,29.00
2023-01-10T15:12:44.635Z,99.30
2023-01-10T15:15:19.073Z,32.40
2023-01-10T15:17:46.251Z,20.20
2023-01-10T15:20:19.719Z,16.90
2023-01-10T15:22:58.422Z,26.60
2023-01-10T15:25:34.591Z,16.50
2023-01-10T15:28:01.224Z,15.00
2023-01-10T15:30:31.292Z,20.30
2023-01-10T15:33:05.058Z,19.60
2023-01-10T15:35:36.734Z,19.20
2023-01-10T15:38:13.902Z,22.70
2023-01-10T15:40:41.940Z,20.10
2023-01-10T15:43:12.565Z,21.20
2023-01-10T15:45:39.499Z,21.30
2023-01-10T15:48:24.448Z,26.30
2023-01-10T15:50:58.974Z,27.60
2023-01-10T15:53:50.527Z,17.90
2023-01-10T15:56:26.977Z,18.30
2023-01-10T15:58:53.746Z,21.10
2023-01-10T16:01:20.613Z,17.40
2023-01-10T16:03:52.376Z,16.70
2023-01-10T16:06:25.845Z,21.70
2023-01-10T16:08:55.282Z,20.20
2023-01-10T16:11:46.046Z,16.80
2023-01-10T16:14:12.582Z,19.00
2023-01-10T16:16:39.115Z,15.20
2023-01-10T16:19:05.980Z,20.20
2023-01-10T16:21:40.026Z,24.80
2023-01-10T16:24:09.439Z,19.00
2023-01-10T16:26:37.360Z,20.70
2023-01-10T16:29:04.209Z,21.60
2023-01-10T16:31:30.906Z,22.90
2023-01-10T16:33:57.383Z,21.50
2023-01-10T16:36:24.132Z,22.00
2023-01-10T16:38:50.551Z,21.40
2023-01-10T16:41:17.210Z,50.80
2023-01-10T16:43:43.755Z,32.80
2023-01-10T16:46:10.367Z,52.50
2023-01-10T16:48:36.843Z,31.90
2023-01-10T16:51:18.041Z,19.70
2023-01-10T16:53:45.262Z,19.50
2023-01-10T16:56:15.090Z,18.80
2023-01-10T16:58:41.926Z,17.70
2023-01-10T17:01:15.582Z,21.70
2023-01-10T17:03:42.692Z,22.00
2023-01-10T17:06:11.801Z,22.70
2023-01-10T17:08:38.537Z,23.40
2023-01-10T17:11:07.859Z,21.10
2023-01-10T17:13:38.366Z,25.00
2023-01-10T17:16:05.418Z,20.70
2023-01-10T17:18:31.971Z,36.80
2023-01-10T17:20:58.816Z,33.70
2023-01-10T17:23:27.115Z,32.50
2023-01-10T17:26:05.225Z,31.80
2023-01-10T17:28:32.059Z,27.90
2023-01-10T17:30:58.602Z,23.90
2023-01-10T17:33:26.811Z,23.00
2023-01-10T17:35:55.584Z,32.40
2023-01-10T17:38:23.231Z,32.30
2023-01-10T17:40:50.099Z,37.60
2023-01-10T17:43:18.050Z,40.10
2023-01-10T17:45:47.086Z,43.10
2023-01-10T17:48:15.899Z,37.20
2023-01-10T17:50:43.863Z,36.20
2023-01-10T17:53:11.070Z,33.20
2023-01-10T17:55:44.404Z,37.90
2023-01-10T17:58:11.025Z,38.00
2023-01-10T18:00:37.557Z,35.70
2023-01-10T18:03:04.127Z,32.10
2023-01-10T18:05:30.751Z,25.60
2023-01-10T18:07:57.151Z,17.30
2023-01-10T18:10:23.821Z,19.20
2023-01-10T18:12:50.455Z,20.10
2023-01-10T18:15:16.925Z,19.30
2023-01-10T18:17:43.573Z,15.70
2023-01-10T18:20:10.981Z,18.70
2023-01-10T18:22:38.650Z,15.70
2023-01-10T18:25:05.812Z,16.10
2023-01-10T18:27:32.228Z,16.30
2023-01-10T18:29:58.889Z,15.80
2023-01-10T18:32:25.838Z,16.50
2023-01-10T18:34:52.480Z,16.60
2023-01-10T18:37:19.118Z,18.20
2023-01-10T18:39:45.785Z,17.10
2023-01-10T18:42:13.323Z,18.70
2023-01-10T18:44:40.165Z,19.30
2023-01-10T18:47:07.534Z,17.30
2023-01-10T18:49:34.067Z,16.00
2023-01-10T18:52:01.018Z,16.20
2023-01-10T18:54:27.544Z,17.20
2023-01-10T18:56:55.233Z,20.40
2023-01-10T18:59:22.569Z,18.90
2023-01-10T19:01:49.363Z,18.90
2023-01-10T19:04:15.852Z,19.20
2023-01-10T19:06:42.262Z,17.70
2023-01-10T19:09:08.676Z,20.50
2023-01-10T19:11:35.125Z,19.10
2023-01-10T19:14:01.823Z,27.70
2023-01-10T19:16:30.646Z,18.20
2023-01-10T19:19:00.738Z,21.10
2023-01-10T19:21:28.604Z,20.70
2023-01-10T19:23:55.571Z,26.90
2023-01-10T19:26:22.711Z,24.10
2023-01-10T19:28:50.078Z,19.30
2023-01-10T19:31:22.037Z,23.20
2023-01-10T19:33:49.095Z,17.80
2023-01-10T19:36:16.737Z,19.30
2023-01-10T19:38:43.917Z,20.10
2023-01-10T19:41:11.303Z,22.50
2023-01-10T19:43:38.034Z,20.50
2023-01-10T19:46:08.632Z,20.20
2023-01-10T19:48:36.019Z,18.60
2023-01-10T19:51:08.275Z,20.40
2023-01-10T19:53:39.846Z,22.50
2023-01-10T19:56:07.212Z,22.80
2023-01-10T19:58:34.562Z,21.50
2023-01-10T20:01:10.150Z,23.60
2023-01-10T20:03:36.755Z,28.80
2023-01-10T20:06:06.932Z,30.90
2023-01-10T20:08:33.791Z,31.60
2023-01-10T20:11:07.324Z,33.00
2023-01-10T20:13:36.605Z,33.30
2023-01-10T20:16:04.601Z,31.90
2023-01-10T20:18:31.405Z,37.50
2023-01-10T20:20:58.616Z,37.70
2023-01-10T20:24:09.343Z,39.80
2023-01-10T20:27:20.479Z,39.50
2023-01-10T20:30:31.852Z,40.50
2023-01-10T20:33:42.856Z,46.80
2023-01-10T20:36:53.122Z,30.50
2023-01-10T20:40:03.714Z,40.40
2023-01-10T20:42:36.196Z,39.80
2023-01-10T20:45:02.676Z,40.50
2023-01-10T20:47:29.154Z,43.70
2023-01-10T20:49:55.552Z,41.80
2023-01-10T20:52:22.338Z,42.20
2023-01-10T20:54:48.775Z,42.20
2023-01-10T20:57:15.315Z,44.30
2023-01-10T20:59:41.963Z,43.60
2023-01-10T21:02:10.957Z,45.70
2023-01-10T21:04:37.566Z,42.90
2023-01-10T21:07:04.080Z,44.20
2023-01-10T21:09:30.573Z,65.30
2023-01-10T21:12:07.498Z,63.50
2023-01-10T21:14:44.133Z,60.20
2023-01-10T21:17:11.805Z,62.70
2023-01-10T21:19:38.285Z,68.00
2023-01-10T21:22:04.791Z,66.90
2023-01-10T21:24:31.217Z,64.20
2023-01-10T21:26:57.703Z,63.80
2023-01-10T21:29:24.194Z,73.40
2023-01-10T21:31:52.173Z,71.10
2023-01-10T21:34:18.915Z,65.00
2023-01-10T21:36:45.580Z,45.70
2023-01-10T21:39:13.045Z,54.10
2023-01-10T21:41:39.473Z,51.30
2023-01-10T21:44:07.591Z,46.00
2023-01-10T21:46:34.258Z,68.60
2023-01-10T21:49:01.617Z,68.50
2023-01-10T21:51:28.145Z,51.50
2023-01-10T21:53:54.717Z,51.90
2023-01-10T21:56:21.344Z,49.30
2023-01-10T21:58:47.779Z,61.40
2023-01-10T22:01:15.227Z,90.50
2023-01-10T22:03:41.702Z,90.70
2023-01-10T22:06:08.445Z,76.90
2023-01-10T22:08:34.845Z,80.60
2023-01-10T22:11:01.258Z,61.30
2023-01-10T22:13:27.759Z,56.40
2023-01-10T22:16:01.401Z,60.20
2023-01-10T22:18:29.758Z,62.30
2023-01-10T22:20:57.292Z,69.00
2023-01-10T22:23:24.609Z,70.50
2023-01-10T22:26:09.706Z,62.00
2023-01-10T22:28:36.191Z,92.20
2023-01-10T22:31:03.757Z,69.20
2023-01-10T22:33:35.827Z,66.70
2023-01-10T22:36:07.905Z,72.20
2023-01-10T22:38:34.423Z,69.70
2023-01-10T22:41:09.083Z,55.10
2023-01-10T22:43:35.591Z,53.60
2023-01-10T22:46:02.646Z,55.50
2023-01-10T22:48:29.513Z,53.20
2023-01-10T22:50:56.050Z,49.70
2023-01-10T22:53:22.570Z,45.90
2023-01-10T22:55:49.337Z,45.40
2023-01-10T22:58:15.785Z,49.60
2023-01-10T23:00:42.219Z,52.80
2023-01-10T23:03:08.753Z,47.70
2023-01-10T23:05:35.211Z,47.60
2023-01-10T23:08:01.783Z,39.90
2023-01-10T23:10:30.756Z,41.30
2023-01-10T23:12:57.970Z,39.90
2023-01-10T23:15:25.156Z,35.70
2023-01-10T23:17:51.675Z,35.50
2023-01-10T23:20:18.423Z,36.40
2023-01-10T23:22:45.065Z,37.50
2023-01-10T23:25:11.711Z,37.00
2023-01-10T23:27:38.449Z,39.50
2023-01-10T23:30:07.222Z,36.90
2023-01-10T23:32:33.996Z,38.40
2023-01-10T23:35:00.421Z,35.10
2023-01-10T23:37:27.071Z,34.70
2023-01-10T23:39:53.516Z,34.10
2023-01-10T23:42:20.039Z,34.30
2023-01-10T23:44:46.788Z,36.00
2023-01-10T23:47:13.424Z,34.60
2023-01-10T23:49:39.862Z,36.70
2023-01-10T23:52:06.493Z,34.70
2023-01-10T23:54:33.046Z,34.10
2023-01-10T23:56:59.523Z,34.80
2023-01-10T23:59:26.447Z,35.70
